sensor_id;sensor_type;location;lat;lon;timestamp;P1;durP1;ratioP1;P2;durP2;ratioP2
58808;SDS011;44579;51.672;7.834;2023-09-18T00:01:16;17.80;;;7.88;;
58808;SDS011;44579;51.672;7.834;2023-09-18T00:03:46;18.08;;;8.35;;
58808;SDS011;44579;51.672;7.834;2023-09-18T00:06:13;19.38;;;8.18;;
58808;SDS011;44579;51.672;7.834;2023-09-18T00:08:40;19.63;;;8.48;;
58808;SDS011;44579;51.672;7.834;2023-09-18T00:11:07;14.90;;;7.15;;
58808;SDS011;44579;51.672;7.834;2023-09-18T00:13:34;16.65;;;7.93;;
58808;SDS011;44579;51.672;7.834;2023-09-18T00:16:01;18.25;;;8.10;;
58808;SDS011;44579;51.672;7.834;2023-09-18T00:18:28;19.45;;;7.68;;
58808;SDS011;44579;51.672;7.834;2023-09-18T00:20:55;16.30;;;8.48;;
58808;SDS011;44579;51.672;7.834;2023-09-18T00:23:22;20.98;;;8.02;;
58808;SDS011;44579;51.672;7.834;2023-09-18T00:25:49;18.05;;;8.25;;
58808;SDS011;44579;51.672;7.834;2023-09-18T00:28:16;21.15;;;8.40;;
58808;SDS011;44579;51.672;7.834;2023-09-18T00:30:46;22.35;;;7.07;;
58808;SDS011;44579;51.672;7.834;2023-09-18T00:33:15;21.00;;;7.60;;
58808;SDS011;44579;51.672;7.834;2023-09-18T00:35:46;18.75;;;7.35;;
58808;SDS011;44579;51.672;7.834;2023-09-18T00:38:14;21.92;;;7.78;;
58808;SDS011;44579;51.672;7.834;2023-09-18T00:40:42;18.60;;;7.88;;
58808;SDS011;44579;51.672;7.834;2023-09-18T00:43:09;13.07;;;6.90;;
58808;SDS011;44579;51.672;7.834;2023-09-18T00:45:38;18.45;;;7.75;;
58808;SDS011;44579;51.672;7.834;2023-09-18T00:48:08;17.80;;;8.15;;
58808;SDS011;44579;51.672;7.834;2023-09-18T00:53:03;18.10;;;7.50;;
58808;SDS011;44579;51.672;7.834;2023-09-18T00:55:30;23.05;;;7.38;;
58808;SDS011;44579;51.672;7.834;2023-09-18T00:57:59;24.10;;;8.25;;
58808;SDS011;44579;51.672;7.834;2023-09-18T01:00:26;18.13;;;8.68;;
58808;SDS011;44579;51.672;7.834;2023-09-18T01:02:53;25.48;;;8.60;;
58808;SDS011;44579;51.672;7.834;2023-09-18T01:05:20;21.52;;;9.05;;
58808;SDS011;44579;51.672;7.834;2023-09-18T01:07:47;18.55;;;8.43;;
58808;SDS011;44579;51.672;7.834;2023-09-18T01:10:14;19.92;;;7.72;;
58808;SDS011;44579;51.672;7.834;2023-09-18T01:15:38;16.60;;;8.35;;
58808;SDS011;44579;51.672;7.834;2023-09-18T01:18:09;20.42;;;8.00;;
58808;SDS011;44579;51.672;7.834;2023-09-18T01:23:03;18.85;;;8.00;;
58808;SDS011;44579;51.672;7.834;2023-09-18T01:25:31;30.83;;;8.85;;
58808;SDS011;44579;51.672;7.834;2023-09-18T01:28:00;27.88;;;8.80;;
58808;SDS011;44579;51.672;7.834;2023-09-18T01:30:27;16.67;;;8.90;;
58808;SDS011;44579;51.672;7.834;2023-09-18T01:32:55;28.33;;;9.15;;
58808;SDS011;44579;51.672;7.834;2023-09-18T01:35:25;23.00;;;7.88;;
58808;SDS011;44579;51.672;7.834;2023-09-18T01:37:57;19.02;;;7.90;;
58808;SDS011;44579;51.672;7.834;2023-09-18T01:40:26;19.85;;;8.55;;
58808;SDS011;44579;51.672;7.834;2023-09-18T01:42:53;23.88;;;7.85;;
58808;SDS011;44579;51.672;7.834;2023-09-18T01:45:20;22.45;;;7.72;;
58808;SDS011;44579;51.672;7.834;2023-09-18T01:47:47;15.18;;;8.25;;
58808;SDS011;44579;51.672;7.834;2023-09-18T01:50:14;23.25;;;8.90;;
58808;SDS011;44579;51.672;7.834;2023-09-18T01:52:41;28.40;;;8.52;;
58808;SDS011;44579;51.672;7.834;2023-09-18T01:55:08;21.20;;;7.93;;
58808;SDS011;44579;51.672;7.834;2023-09-18T02:00:03;21.85;;;8.80;;
58808;SDS011;44579;51.672;7.834;2023-09-18T02:02:37;19.25;;;9.05;;
58808;SDS011;44579;51.672;7.834;2023-09-18T02:05:18;18.60;;;8.05;;
58808;SDS011;44579;51.672;7.834;2023-09-18T02:07:45;22.00;;;8.50;;
58808;SDS011;44579;51.672;7.834;2023-09-18T02:10:13;15.88;;;6.93;;
58808;SDS011;44579;51.672;7.834;2023-09-18T02:12:39;21.10;;;8.00;;
58808;SDS011;44579;51.672;7.834;2023-09-18T02:15:06;16.55;;;7.32;;
58808;SDS011;44579;51.672;7.834;2023-09-18T02:17:36;21.52;;;8.20;;
58808;SDS011;44579;51.672;7.834;2023-09-18T02:20:04;22.35;;;7.32;;
58808;SDS011;44579;51.672;7.834;2023-09-18T02:22:38;22.67;;;8.32;;
58808;SDS011;44579;51.672;7.834;2023-09-18T02:25:06;18.30;;;8.43;;
58808;SDS011;44579;51.672;7.834;2023-09-18T02:27:34;24.15;;;8.23;;
58808;SDS011;44579;51.672;7.834;2023-09-18T02:30:01;21.02;;;7.65;;
58808;SDS011;44579;51.672;7.834;2023-09-18T02:34:57;21.30;;;8.25;;
58808;SDS011;44579;51.672;7.834;2023-09-18T02:37:24;23.55;;;9.02;;
58808;SDS011;44579;51.672;7.834;2023-09-18T02:39:51;26.50;;;9.68;;
58808;SDS011;44579;51.672;7.834;2023-09-18T02:42:18;17.23;;;7.38;;
58808;SDS011;44579;51.672;7.834;2023-09-18T02:44:45;23.23;;;8.98;;
58808;SDS011;44579;51.672;7.834;2023-09-18T02:47:12;19.38;;;8.73;;
58808;SDS011;44579;51.672;7.834;2023-09-18T02:52:07;19.45;;;8.27;;
58808;SDS011;44579;51.672;7.834;2023-09-18T02:54:34;22.85;;;8.25;;
58808;SDS011;44579;51.672;7.834;2023-09-18T02:57:01;24.83;;;8.43;;
58808;SDS011;44579;51.672;7.834;2023-09-18T02:59:28;19.90;;;8.77;;
58808;SDS011;44579;51.672;7.834;2023-09-18T03:01:55;22.10;;;8.23;;
58808;SDS011;44579;51.672;7.834;2023-09-18T03:04:22;17.05;;;8.93;;
58808;SDS011;44579;51.672;7.834;2023-09-18T03:06:49;22.30;;;9.02;;
58808;SDS011;44579;51.672;7.834;2023-09-18T03:09:16;27.02;;;7.88;;
58808;SDS011;44579;51.672;7.834;2023-09-18T03:11:45;18.30;;;8.60;;
58808;SDS011;44579;51.672;7.834;2023-09-18T03:14:12;26.05;;;8.90;;
58808;SDS011;44579;51.672;7.834;2023-09-18T03:16:41;25.02;;;9.60;;
58808;SDS011;44579;51.672;7.834;2023-09-18T03:19:09;25.73;;;8.38;;
58808;SDS011;44579;51.672;7.834;2023-09-18T03:21:37;23.77;;;8.57;;
58808;SDS011;44579;51.672;7.834;2023-09-18T03:28:58;31.73;;;8.68;;
58808;SDS011;44579;51.672;7.834;2023-09-18T03:31:25;21.60;;;7.22;;
58808;SDS011;44579;51.672;7.834;2023-09-18T03:33:53;16.42;;;6.97;;
58808;SDS011;44579;51.672;7.834;2023-09-18T03:36:23;20.23;;;8.25;;
58808;SDS011;44579;51.672;7.834;2023-09-18T03:38:50;16.17;;;7.45;;
58808;SDS011;44579;51.672;7.834;2023-09-18T03:41:17;20.77;;;6.90;;
58808;SDS011;44579;51.672;7.834;2023-09-18T03:43:44;12.88;;;6.22;;
58808;SDS011;44579;51.672;7.834;2023-09-18T03:46:11;21.85;;;7.93;;
58808;SDS011;44579;51.672;7.834;2023-09-18T03:48:43;20.90;;;6.55;;
58808;SDS011;44579;51.672;7.834;2023-09-18T03:51:10;19.35;;;7.00;;
58808;SDS011;44579;51.672;7.834;2023-09-18T03:53:42;14.40;;;7.00;;
58808;SDS011;44579;51.672;7.834;2023-09-18T03:56:09;19.30;;;7.57;;
58808;SDS011;44579;51.672;7.834;2023-09-18T03:58:36;17.02;;;6.95;;
58808;SDS011;44579;51.672;7.834;2023-09-18T04:01:03;10.90;;;6.07;;
58808;SDS011;44579;51.672;7.834;2023-09-18T04:03:30;23.02;;;7.18;;
58808;SDS011;44579;51.672;7.834;2023-09-18T04:05:58;20.95;;;6.65;;
58808;SDS011;44579;51.672;7.834;2023-09-18T04:08:25;23.80;;;6.22;;
58808;SDS011;44579;51.672;7.834;2023-09-18T04:10:53;27.15;;;6.25;;
58808;SDS011;44579;51.672;7.834;2023-09-18T04:13:23;12.48;;;5.82;;
58808;SDS011;44579;51.672;7.834;2023-09-18T04:15:52;17.15;;;5.32;;
58808;SDS011;44579;51.672;7.834;2023-09-18T04:18:23;13.82;;;5.05;;
58808;SDS011;44579;51.672;7.834;2023-09-18T04:20:50;13.23;;;5.07;;
58808;SDS011;44579;51.672;7.834;2023-09-18T04:23:19;14.02;;;5.25;;
58808;SDS011;44579;51.672;7.834;2023-09-18T04:25:51;17.58;;;5.07;;
58808;SDS011;44579;51.672;7.834;2023-09-18T04:28:20;14.55;;;4.75;;
58808;SDS011;44579;51.672;7.834;2023-09-18T04:30:49;16.00;;;5.57;;
58808;SDS011;44579;51.672;7.834;2023-09-18T04:33:17;17.63;;;5.03;;
58808;SDS011;44579;51.672;7.834;2023-09-18T04:38:12;8.35;;;4.43;;
58808;SDS011;44579;51.672;7.834;2023-09-18T04:40:43;16.48;;;4.88;;
58808;SDS011;44579;51.672;7.834;2023-09-18T04:43:12;15.48;;;4.72;;
58808;SDS011;44579;51.672;7.834;2023-09-18T04:45:39;13.32;;;4.50;;
58808;SDS011;44579;51.672;7.834;2023-09-18T04:50:35;21.00;;;5.95;;
58808;SDS011;44579;51.672;7.834;2023-09-18T04:53:03;17.23;;;4.93;;
58808;SDS011;44579;51.672;7.834;2023-09-18T04:55:31;22.02;;;5.90;;
58808;SDS011;44579;51.672;7.834;2023-09-18T04:57:58;18.25;;;4.75;;
58808;SDS011;44579;51.672;7.834;2023-09-18T05:00:26;14.52;;;4.45;;
58808;SDS011;44579;51.672;7.834;2023-09-18T05:02:55;15.50;;;5.20;;
58808;SDS011;44579;51.672;7.834;2023-09-18T05:05:22;11.20;;;4.88;;
58808;SDS011;44579;51.672;7.834;2023-09-18T05:07:49;21.92;;;5.32;;
58808;SDS011;44579;51.672;7.834;2023-09-18T05:10:16;25.05;;;5.32;;
58808;SDS011;44579;51.672;7.834;2023-09-18T05:12:43;27.75;;;4.60;;
58808;SDS011;44579;51.672;7.834;2023-09-18T05:15:10;20.83;;;4.05;;
58808;SDS011;44579;51.672;7.834;2023-09-18T05:17:40;21.58;;;3.70;;
58808;SDS011;44579;51.672;7.834;2023-09-18T05:20:15;16.02;;;3.90;;
58808;SDS011;44579;51.672;7.834;2023-09-18T05:22:43;13.85;;;3.63;;
58808;SDS011;44579;51.672;7.834;2023-09-18T05:25:12;20.38;;;3.58;;
58808;SDS011;44579;51.672;7.834;2023-09-18T05:27:41;16.77;;;3.83;;
58808;SDS011;44579;51.672;7.834;2023-09-18T05:30:12;27.02;;;3.40;;
58808;SDS011;44579;51.672;7.834;2023-09-18T05:32:42;25.10;;;3.60;;
58808;SDS011;44579;51.672;7.834;2023-09-18T05:35:10;21.08;;;3.50;;
58808;SDS011;44579;51.672;7.834;2023-09-18T05:37:40;16.67;;;3.92;;
58808;SDS011;44579;51.672;7.834;2023-09-18T05:40:08;16.13;;;4.55;;
58808;SDS011;44579;51.672;7.834;2023-09-18T05:42:37;27.13;;;3.97;;
58808;SDS011;44579;51.672;7.834;2023-09-18T05:45:05;31.85;;;3.50;;
58808;SDS011;44579;51.672;7.834;2023-09-18T05:47:33;15.77;;;3.35;;
58808;SDS011;44579;51.672;7.834;2023-09-18T05:50:02;20.83;;;3.58;;
58808;SDS011;44579;51.672;7.834;2023-09-18T05:52:33;26.85;;;3.72;;
58808;SDS011;44579;51.672;7.834;2023-09-18T05:55:01;18.90;;;3.75;;
58808;SDS011;44579;51.672;7.834;2023-09-18T05:57:31;14.10;;;2.78;;
58808;SDS011;44579;51.672;7.834;2023-09-18T06:04:56;18.33;;;3.25;;
58808;SDS011;44579;51.672;7.834;2023-09-18T06:07:26;25.45;;;3.65;;
58808;SDS011;44579;51.672;7.834;2023-09-18T06:09:54;22.73;;;3.58;;
58808;SDS011;44579;51.672;7.834;2023-09-18T06:12:21;15.27;;;2.67;;
58808;SDS011;44579;51.672;7.834;2023-09-18T06:14:49;14.23;;;3.17;;
58808;SDS011;44579;51.672;7.834;2023-09-18T06:17:16;16.02;;;2.70;;
58808;SDS011;44579;51.672;7.834;2023-09-18T06:19:44;30.00;;;3.17;;
58808;SDS011;44579;51.672;7.834;2023-09-18T06:22:12;16.67;;;3.40;;
58808;SDS011;44579;51.672;7.834;2023-09-18T06:24:40;16.17;;;3.25;;
58808;SDS011;44579;51.672;7.834;2023-09-18T06:27:07;10.35;;;2.60;;
58808;SDS011;44579;51.672;7.834;2023-09-18T06:29:34;16.83;;;3.08;;
58808;SDS011;44579;51.672;7.834;2023-09-18T06:32:04;22.30;;;3.33;;
58808;SDS011;44579;51.672;7.834;2023-09-18T06:34:32;11.73;;;2.70;;
58808;SDS011;44579;51.672;7.834;2023-09-18T06:37:00;14.18;;;3.17;;
58808;SDS011;44579;51.672;7.834;2023-09-18T06:39:47;21.60;;;3.15;;
58808;SDS011;44579;51.672;7.834;2023-09-18T06:42:18;15.55;;;2.60;;
58808;SDS011;44579;51.672;7.834;2023-09-18T06:44:56;13.82;;;2.80;;
58808;SDS011;44579;51.672;7.834;2023-09-18T06:47:24;8.98;;;2.42;;
58808;SDS011;44579;51.672;7.834;2023-09-18T06:49:51;8.88;;;2.45;;
58808;SDS011;44579;51.672;7.834;2023-09-18T06:52:19;16.02;;;2.33;;
58808;SDS011;44579;51.672;7.834;2023-09-18T06:54:52;13.40;;;3.30;;
58808;SDS011;44579;51.672;7.834;2023-09-18T06:57:24;9.55;;;2.45;;
58808;SDS011;44579;51.672;7.834;2023-09-18T06:59:51;22.25;;;3.22;;
58808;SDS011;44579;51.672;7.834;2023-09-18T07:02:20;14.40;;;3.30;;
58808;SDS011;44579;51.672;7.834;2023-09-18T07:09:50;17.60;;;2.67;;
58808;SDS011;44579;51.672;7.834;2023-09-18T07:12:31;11.90;;;3.00;;
58808;SDS011;44579;51.672;7.834;2023-09-18T07:15:00;17.30;;;2.70;;
58808;SDS011;44579;51.672;7.834;2023-09-18T07:17:32;17.38;;;3.08;;
58808;SDS011;44579;51.672;7.834;2023-09-18T07:20:09;17.33;;;2.72;;
58808;SDS011;44579;51.672;7.834;2023-09-18T07:22:46;12.18;;;2.28;;
58808;SDS011;44579;51.672;7.834;2023-09-18T07:25:15;13.35;;;2.85;;
58808;SDS011;44579;51.672;7.834;2023-09-18T07:27:42;20.65;;;2.78;;
58808;SDS011;44579;51.672;7.834;2023-09-18T07:30:13;10.73;;;2.38;;
58808;SDS011;44579;51.672;7.834;2023-09-18T07:32:46;14.38;;;2.60;;
58808;SDS011;44579;51.672;7.834;2023-09-18T07:35:14;7.97;;;1.95;;
58808;SDS011;44579;51.672;7.834;2023-09-18T07:37:42;5.95;;;1.60;;
58808;SDS011;44579;51.672;7.834;2023-09-18T07:40:11;7.63;;;2.25;;
58808;SDS011;44579;51.672;7.834;2023-09-18T07:42:38;14.85;;;2.58;;
58808;SDS011;44579;51.672;7.834;2023-09-18T07:45:05;21.35;;;2.90;;
58808;SDS011;44579;51.672;7.834;2023-09-18T07:47:33;16.83;;;2.47;;
58808;SDS011;44579;51.672;7.834;2023-09-18T07:52:28;17.15;;;2.40;;
58808;SDS011;44579;51.672;7.834;2023-09-18T07:54:56;12.23;;;2.88;;
58808;SDS011;44579;51.672;7.834;2023-09-18T07:57:25;8.30;;;2.05;;
58808;SDS011;44579;51.672;7.834;2023-09-18T07:59:54;9.68;;;2.42;;
58808;SDS011;44579;51.672;7.834;2023-09-18T08:02:21;13.85;;;2.25;;
58808;SDS011;44579;51.672;7.834;2023-09-18T08:04:49;8.38;;;2.38;;
58808;SDS011;44579;51.672;7.834;2023-09-18T08:09:47;12.57;;;2.40;;
58808;SDS011;44579;51.672;7.834;2023-09-18T08:12:15;17.10;;;3.50;;
58808;SDS011;44579;51.672;7.834;2023-09-18T08:14:44;16.63;;;2.20;;
58808;SDS011;44579;51.672;7.834;2023-09-18T08:17:11;6.50;;;2.00;;
58808;SDS011;44579;51.672;7.834;2023-09-18T08:19:38;20.55;;;2.88;;
58808;SDS011;44579;51.672;7.834;2023-09-18T08:22:06;19.00;;;2.30;;
58808;SDS011;44579;51.672;7.834;2023-09-18T08:24:33;8.70;;;2.00;;
58808;SDS011;44579;51.672;7.834;2023-09-18T08:27:00;9.90;;;2.63;;
58808;SDS011;44579;51.672;7.834;2023-09-18T08:29:28;10.77;;;1.25;;
58808;SDS011;44579;51.672;7.834;2023-09-18T08:31:55;16.63;;;2.00;;
58808;SDS011;44579;51.672;7.834;2023-09-18T08:34:22;11.55;;;2.10;;
58808;SDS011;44579;51.672;7.834;2023-09-18T08:36:51;14.27;;;2.65;;
58808;SDS011;44579;51.672;7.834;2023-09-18T08:39:21;15.80;;;1.90;;
58808;SDS011;44579;51.672;7.834;2023-09-18T08:41:49;13.43;;;2.78;;
58808;SDS011;44579;51.672;7.834;2023-09-18T08:44:17;12.90;;;2.00;;
58808;SDS011;44579;51.672;7.834;2023-09-18T08:46:46;4.07;;;1.33;;
58808;SDS011;44579;51.672;7.834;2023-09-18T08:51:42;9.13;;;1.80;;
58808;SDS011;44579;51.672;7.834;2023-09-18T08:54:09;5.30;;;2.03;;
58808;SDS011;44579;51.672;7.834;2023-09-18T08:56:37;8.85;;;2.60;;
58808;SDS011;44579;51.672;7.834;2023-09-18T08:59:05;12.90;;;1.98;;
58808;SDS011;44579;51.672;7.834;2023-09-18T09:07:29;10.02;;;0.93;;
58808;SDS011;44579;51.672;7.834;2023-09-18T09:10:25;12.90;;;2.17;;
58808;SDS011;44579;51.672;7.834;2023-09-18T09:15:21;12.15;;;2.17;;
58808;SDS011;44579;51.672;7.834;2023-09-18T09:18:03;13.70;;;2.80;;
58808;SDS011;44579;51.672;7.834;2023-09-18T09:20:38;11.45;;;2.40;;
58808;SDS011;44579;51.672;7.834;2023-09-18T09:23:08;8.00;;;1.83;;
58808;SDS011;44579;51.672;7.834;2023-09-18T09:25:39;12.23;;;2.63;;
58808;SDS011;44579;51.672;7.834;2023-09-18T09:28:10;9.82;;;2.40;;
58808;SDS011;44579;51.672;7.834;2023-09-18T09:30:39;12.77;;;2.17;;
58808;SDS011;44579;51.672;7.834;2023-09-18T09:33:10;12.63;;;2.38;;
58808;SDS011;44579;51.672;7.834;2023-09-18T09:35:43;9.25;;;2.17;;
58808;SDS011;44579;51.672;7.834;2023-09-18T09:38:12;11.13;;;2.15;;
58808;SDS011;44579;51.672;7.834;2023-09-18T09:40:43;8.27;;;2.47;;
58808;SDS011;44579;51.672;7.834;2023-09-18T09:43:12;7.28;;;2.50;;
58808;SDS011;44579;51.672;7.834;2023-09-18T09:45:41;9.25;;;2.58;;
58808;SDS011;44579;51.672;7.834;2023-09-18T09:48:12;7.95;;;2.10;;
58808;SDS011;44579;51.672;7.834;2023-09-18T09:50:47;7.50;;;2.20;;
58808;SDS011;44579;51.672;7.834;2023-09-18T09:53:16;8.95;;;2.33;;
58808;SDS011;44579;51.672;7.834;2023-09-18T09:55:44;13.68;;;2.40;;
58808;SDS011;44579;51.672;7.834;2023-09-18T09:58:12;8.32;;;2.22;;
58808;SDS011;44579;51.672;7.834;2023-09-18T10:00:41;4.10;;;1.92;;
58808;SDS011;44579;51.672;7.834;2023-09-18T10:03:13;9.38;;;2.10;;
58808;SDS011;44579;51.672;7.834;2023-09-18T10:06:34;5.82;;;1.23;;
58808;SDS011;44579;51.672;7.834;2023-09-18T10:09:03;8.98;;;2.03;;
58808;SDS011;44579;51.672;7.834;2023-09-18T10:11:34;12.98;;;2.25;;
58808;SDS011;44579;51.672;7.834;2023-09-18T10:14:29;7.45;;;2.05;;
58808;SDS011;44579;51.672;7.834;2023-09-18T10:17:15;11.40;;;1.45;;
58808;SDS011;44579;51.672;7.834;2023-09-18T10:19:50;8.02;;;1.45;;
58808;SDS011;44579;51.672;7.834;2023-09-18T10:22:44;5.50;;;1.80;;
58808;SDS011;44579;51.672;7.834;2023-09-18T10:25:28;6.85;;;1.63;;
58808;SDS011;44579;51.672;7.834;2023-09-18T10:27:57;4.75;;;1.60;;
58808;SDS011;44579;51.672;7.834;2023-09-18T10:30:32;9.18;;;2.00;;
58808;SDS011;44579;51.672;7.834;2023-09-18T10:33:00;10.88;;;1.90;;
58808;SDS011;44579;51.672;7.834;2023-09-18T10:35:32;8.18;;;2.03;;
58808;SDS011;44579;51.672;7.834;2023-09-18T10:38:00;5.88;;;1.73;;
58808;SDS011;44579;51.672;7.834;2023-09-18T10:40:29;7.15;;;1.75;;
58808;SDS011;44579;51.672;7.834;2023-09-18T10:42:58;4.32;;;1.48;;
58808;SDS011;44579;51.672;7.834;2023-09-18T10:45:31;6.68;;;1.60;;
58808;SDS011;44579;51.672;7.834;2023-09-18T10:50:28;6.55;;;1.75;;
58808;SDS011;44579;51.672;7.834;2023-09-18T10:52:57;5.75;;;1.45;;
58808;SDS011;44579;51.672;7.834;2023-09-18T10:55:25;8.35;;;1.70;;
58808;SDS011;44579;51.672;7.834;2023-09-18T10:57:54;5.90;;;1.55;;
58808;SDS011;44579;51.672;7.834;2023-09-18T11:00:26;10.30;;;1.98;;
58808;SDS011;44579;51.672;7.834;2023-09-18T11:03:09;5.35;;;1.58;;
58808;SDS011;44579;51.672;7.834;2023-09-18T11:05:47;2.83;;;1.35;;
58808;SDS011;44579;51.672;7.834;2023-09-18T11:08:26;3.20;;;1.35;;
58808;SDS011;44579;51.672;7.834;2023-09-18T11:11:05;7.85;;;1.25;;
58808;SDS011;44579;51.672;7.834;2023-09-18T11:13:39;7.18;;;2.05;;
58808;SDS011;44579;51.672;7.834;2023-09-18T11:21:31;2.70;;;1.08;;
58808;SDS011;44579;51.672;7.834;2023-09-18T11:24:01;4.55;;;1.63;;
58808;SDS011;44579;51.672;7.834;2023-09-18T11:26:30;3.15;;;1.40;;
58808;SDS011;44579;51.672;7.834;2023-09-18T11:29:03;3.05;;;1.13;;
58808;SDS011;44579;51.672;7.834;2023-09-18T11:34:27;3.30;;;1.00;;
58808;SDS011;44579;51.672;7.834;2023-09-18T11:36:57;12.15;;;1.40;;
58808;SDS011;44579;51.672;7.834;2023-09-18T11:42:06;2.30;;;1.27;;
58808;SDS011;44579;51.672;7.834;2023-09-18T11:44:35;11.77;;;2.30;;
58808;SDS011;44579;51.672;7.834;2023-09-18T11:47:08;13.65;;;1.73;;
58808;SDS011;44579;51.672;7.834;2023-09-18T11:49:54;6.28;;;1.40;;
58808;SDS011;44579;51.672;7.834;2023-09-18T11:52:26;4.13;;;1.35;;
58808;SDS011;44579;51.672;7.834;2023-09-18T11:54:56;8.00;;;1.80;;
58808;SDS011;44579;51.672;7.834;2023-09-18T11:57:25;12.85;;;1.60;;
58808;SDS011;44579;51.672;7.834;2023-09-18T12:00:03;3.45;;;1.35;;
58808;SDS011;44579;51.672;7.834;2023-09-18T12:02:48;5.78;;;1.27;;
58808;SDS011;44579;51.672;7.834;2023-09-18T12:05:17;7.32;;;1.65;;
58808;SDS011;44579;51.672;7.834;2023-09-18T12:07:46;3.42;;;1.40;;
58808;SDS011;44579;51.672;7.834;2023-09-18T12:10:16;2.90;;;0.77;;
58808;SDS011;44579;51.672;7.834;2023-09-18T12:12:45;8.02;;;1.55;;
58808;SDS011;44579;51.672;7.834;2023-09-18T12:15:12;3.55;;;1.50;;
58808;SDS011;44579;51.672;7.834;2023-09-18T12:17:45;6.15;;;1.20;;
58808;SDS011;44579;51.672;7.834;2023-09-18T12:20:16;3.67;;;1.23;;
58808;SDS011;44579;51.672;7.834;2023-09-18T12:22:48;4.00;;;1.25;;
58808;SDS011;44579;51.672;7.834;2023-09-18T12:25:17;10.35;;;1.33;;
58808;SDS011;44579;51.672;7.834;2023-09-18T12:27:53;3.38;;;1.08;;
58808;SDS011;44579;51.672;7.834;2023-09-18T12:30:23;2.72;;;1.08;;
58808;SDS011;44579;51.672;7.834;2023-09-18T12:32:50;3.35;;;2.90;;
58808;SDS011;44579;51.672;7.834;2023-09-18T12:35:18;4.53;;;0.90;;
58808;SDS011;44579;51.672;7.834;2023-09-18T12:37:46;3.22;;;1.10;;
58808;SDS011;44579;51.672;7.834;2023-09-18T12:40:22;4.35;;;1.38;;
58808;SDS011;44579;51.672;7.834;2023-09-18T12:42:50;1.92;;;1.10;;
58808;SDS011;44579;51.672;7.834;2023-09-18T12:45:18;9.32;;;1.50;;
58808;SDS011;44579;51.672;7.834;2023-09-18T12:47:46;8.32;;;1.85;;
58808;SDS011;44579;51.672;7.834;2023-09-18T12:50:14;4.90;;;1.55;;
58808;SDS011;44579;51.672;7.834;2023-09-18T12:52:41;3.17;;;1.17;;
58808;SDS011;44579;51.672;7.834;2023-09-18T12:55:20;4.28;;;1.40;;
58808;SDS011;44579;51.672;7.834;2023-09-18T12:57:51;1.50;;;1.00;;
58808;SDS011;44579;51.672;7.834;2023-09-18T13:00:22;4.70;;;1.42;;
58808;SDS011;44579;51.672;7.834;2023-09-18T13:02:50;8.07;;;1.20;;
58808;SDS011;44579;51.672;7.834;2023-09-18T13:05:25;5.15;;;1.40;;
58808;SDS011;44579;51.672;7.834;2023-09-18T13:08:10;4.82;;;1.42;;
58808;SDS011;44579;51.672;7.834;2023-09-18T13:10:46;6.20;;;1.23;;
58808;SDS011;44579;51.672;7.834;2023-09-18T13:13:22;9.15;;;1.40;;
58808;SDS011;44579;51.672;7.834;2023-09-18T13:16:07;3.28;;;1.25;;
58808;SDS011;44579;51.672;7.834;2023-09-18T13:18:38;6.03;;;1.20;;
58808;SDS011;44579;51.672;7.834;2023-09-18T13:21:09;5.40;;;1.63;;
58808;SDS011;44579;51.672;7.834;2023-09-18T13:23:40;3.17;;;1.30;;
58808;SDS011;44579;51.672;7.834;2023-09-18T13:28:36;5.72;;;1.65;;
58808;SDS011;44579;51.672;7.834;2023-09-18T13:31:06;5.88;;;1.75;;
58808;SDS011;44579;51.672;7.834;2023-09-18T13:33:37;10.63;;;1.40;;
58808;SDS011;44579;51.672;7.834;2023-09-18T13:36:06;6.00;;;1.20;;
58808;SDS011;44579;51.672;7.834;2023-09-18T13:41:01;12.45;;;1.35;;
58808;SDS011;44579;51.672;7.834;2023-09-18T13:43:31;8.32;;;1.35;;
58808;SDS011;44579;51.672;7.834;2023-09-18T13:46:02;9.55;;;1.30;;
58808;SDS011;44579;51.672;7.834;2023-09-18T13:48:31;3.90;;;1.10;;
58808;SDS011;44579;51.672;7.834;2023-09-18T13:50:59;6.97;;;2.20;;
58808;SDS011;44579;51.672;7.834;2023-09-18T13:53:29;4.55;;;1.20;;
58808;SDS011;44579;51.672;7.834;2023-09-18T13:55:59;9.32;;;1.23;;
58808;SDS011;44579;51.672;7.834;2023-09-18T13:58:38;2.83;;;0.90;;
58808;SDS011;44579;51.672;7.834;2023-09-18T14:01:07;2.58;;;1.20;;
58808;SDS011;44579;51.672;7.834;2023-09-18T14:03:35;8.95;;;1.35;;
58808;SDS011;44579;51.672;7.834;2023-09-18T14:06:09;5.80;;;1.40;;
58808;SDS011;44579;51.672;7.834;2023-09-18T14:08:37;3.80;;;1.35;;
58808;SDS011;44579;51.672;7.834;2023-09-18T14:11:06;4.60;;;1.20;;
58808;SDS011;44579;51.672;7.834;2023-09-18T14:13:33;4.63;;;1.10;;
58808;SDS011;44579;51.672;7.834;2023-09-18T14:16:00;3.20;;;1.10;;
58808;SDS011;44579;51.672;7.834;2023-09-18T14:18:30;1.95;;;0.82;;
58808;SDS011;44579;51.672;7.834;2023-09-18T14:20:57;4.78;;;1.20;;
58808;SDS011;44579;51.672;7.834;2023-09-18T14:23:25;3.45;;;1.40;;
58808;SDS011;44579;51.672;7.834;2023-09-18T14:25:53;2.65;;;1.33;;
58808;SDS011;44579;51.672;7.834;2023-09-18T14:28:22;5.00;;;1.20;;
58808;SDS011;44579;51.672;7.834;2023-09-18T14:31:43;4.45;;;1.10;;
58808;SDS011;44579;51.672;7.834;2023-09-18T14:36:37;9.90;;;1.58;;
58808;SDS011;44579;51.672;7.834;2023-09-18T14:39:06;7.35;;;1.17;;
58808;SDS011;44579;51.672;7.834;2023-09-18T14:41:36;3.70;;;1.55;;
58808;SDS011;44579;51.672;7.834;2023-09-18T14:44:04;3.88;;;1.30;;
58808;SDS011;44579;51.672;7.834;2023-09-18T14:46:33;2.60;;;1.20;;
58808;SDS011;44579;51.672;7.834;2023-09-18T14:49:01;4.32;;;1.13;;
58808;SDS011;44579;51.672;7.834;2023-09-18T14:51:28;5.00;;;1.42;;
58808;SDS011;44579;51.672;7.834;2023-09-18T14:56:22;4.47;;;1.27;;
58808;SDS011;44579;51.672;7.834;2023-09-18T14:58:50;3.90;;;1.40;;
58808;SDS011;44579;51.672;7.834;2023-09-18T15:01:21;3.10;;;1.00;;
58808;SDS011;44579;51.672;7.834;2023-09-18T15:03:49;3.42;;;1.20;;
58808;SDS011;44579;51.672;7.834;2023-09-18T15:06:17;6.43;;;1.20;;
58808;SDS011;44579;51.672;7.834;2023-09-18T15:08:45;4.82;;;1.33;;
58808;SDS011;44579;51.672;7.834;2023-09-18T15:11:13;4.22;;;1.42;;
58808;SDS011;44579;51.672;7.834;2023-09-18T15:13:44;2.88;;;1.00;;
58808;SDS011;44579;51.672;7.834;2023-09-18T15:16:12;10.23;;;1.70;;
58808;SDS011;44579;51.672;7.834;2023-09-18T15:18:39;7.35;;;1.42;;
58808;SDS011;44579;51.672;7.834;2023-09-18T15:21:06;6.43;;;1.10;;
58808;SDS011;44579;51.672;7.834;2023-09-18T15:23:33;2.03;;;1.00;;
58808;SDS011;44579;51.672;7.834;2023-09-18T15:28:28;4.22;;;1.10;;
58808;SDS011;44579;51.672;7.834;2023-09-18T15:30:58;1.70;;;1.05;;
58808;SDS011;44579;51.672;7.834;2023-09-18T15:38:20;7.13;;;1.30;;
58808;SDS011;44579;51.672;7.834;2023-09-18T15:40:48;3.40;;;1.17;;
58808;SDS011;44579;51.672;7.834;2023-09-18T15:43:15;1.55;;;1.05;;
58808;SDS011;44579;51.672;7.834;2023-09-18T15:45:45;7.57;;;1.30;;
58808;SDS011;44579;51.672;7.834;2023-09-18T15:48:12;2.33;;;1.20;;
58808;SDS011;44579;51.672;7.834;2023-09-18T15:50:40;2.70;;;1.10;;
58808;SDS011;44579;51.672;7.834;2023-09-18T15:53:11;2.53;;;1.45;;
58808;SDS011;44579;51.672;7.834;2023-09-18T15:55:39;3.53;;;1.40;;
58808;SDS011;44579;51.672;7.834;2023-09-18T16:00:34;1.98;;;0.80;;
58808;SDS011;44579;51.672;7.834;2023-09-18T16:03:02;7.10;;;1.05;;
58808;SDS011;44579;51.672;7.834;2023-09-18T16:05:30;3.40;;;1.38;;
58808;SDS011;44579;51.672;7.834;2023-09-18T16:07:57;1.27;;;0.93;;
58808;SDS011;44579;51.672;7.834;2023-09-18T16:10:31;3.30;;;1.52;;
58808;SDS011;44579;51.672;7.834;2023-09-18T16:12:59;5.90;;;1.05;;
58808;SDS011;44579;51.672;7.834;2023-09-18T16:17:56;8.20;;;1.38;;
58808;SDS011;44579;51.672;7.834;2023-09-18T16:20:24;3.97;;;1.13;;
58808;SDS011;44579;51.672;7.834;2023-09-18T16:22:51;5.15;;;1.38;;